createdAt,value
2019-05-09T00:00:34.094Z,11.31
2019-05-09T00:05:37.610Z,11.12
2019-05-09T00:10:41.960Z,11.13
2019-05-09T00:15:46.340Z,11.31
2019-05-09T00:20:55.108Z,11.35
2019-05-09T00:25:58.487Z,11.28
2019-05-09T00:31:06.467Z,11.44
2019-05-09T00:36:09.713Z,11.18
2019-05-09T00:41:14.169Z,11.34
2019-05-09T00:46:29.187Z,11.23
2019-05-09T00:51:33.894Z,11.29
2019-05-09T00:56:37.195Z,11.33
2019-05-09T01:01:40.111Z,11.36
2019-05-09T01:06:43.538Z,11.16
2019-05-09T01:11:46.524Z,11.23
2019-05-09T01:16:49.698Z,11.32
2019-05-09T01:21:54.216Z,11.25
2019-05-09T01:26:57.593Z,11.06
2019-05-09T01:32:04.899Z,11.04
2019-05-09T01:37:13.912Z,11.28
2019-05-09T01:42:17.091Z,11.44
2019-05-09T01:47:20.056Z,11.03
2019-05-09T01:52:23.188Z,11.07
2019-05-09T01:57:26.368Z,10.93
2019-05-09T02:02:29.548Z,11.05
2019-05-09T02:07:33.241Z,11.13
2019-05-09T02:12:36.819Z,11.27
2019-05-09T02:18:05.403Z,11.23
2019-05-09T02:23:08.838Z,11.04
2019-05-09T02:28:14.043Z,11.09
2019-05-09T02:33:16.937Z,11.13
2019-05-09T02:38:20.107Z,11.21
2019-05-09T02:43:23.110Z,11.06
2019-05-09T02:48:28.829Z,11.03
2019-05-09T02:53:31.797Z,11.03
2019-05-09T02:58:43.631Z,10.96
2019-05-09T03:03:48.178Z,11.28
2019-05-09T03:08:51.929Z,11.24
2019-05-09T03:13:58.362Z,10.93
2019-05-09T03:19:00.538Z,10.80
2019-05-09T03:24:04.381Z,10.94
2019-05-09T03:29:19.109Z,11.00
2019-05-09T03:34:21.734Z,10.84
2019-05-09T03:39:27.639Z,10.64
2019-05-09T03:44:30.709Z,10.76
2019-05-09T03:49:34.026Z,10.53
2019-05-09T03:54:37.653Z,10.49
2019-05-09T03:59:41.563Z,10.49
2019-05-09T04:04:44.527Z,10.66
2019-05-09T04:09:48.087Z,10.63
2019-05-09T04:14:51.443Z,10.89
2019-05-09T04:19:54.599Z,10.94
2019-05-09T04:24:58.333Z,10.96
2019-05-09T04:30:01.504Z,11.03
2019-05-09T04:35:04.169Z,10.75
2019-05-09T04:40:08.224Z,10.65
2019-05-09T04:45:28.336Z,10.59
2019-05-09T04:50:31.681Z,10.43
2019-05-09T04:55:37.659Z,10.38
2019-05-09T05:00:59.197Z,10.68
2019-05-09T05:06:02.760Z,10.88
2019-05-09T05:11:07.498Z,11.06
2019-05-09T05:16:10.906Z,10.87
2019-05-09T05:21:14.753Z,10.91
2019-05-09T05:26:19.326Z,11.20
2019-05-09T05:31:22.236Z,11.08
2019-05-09T05:36:25.310Z,11.26
2019-05-09T05:41:28.838Z,11.32
2019-05-09T05:46:51.741Z,11.69
2019-05-09T05:51:57.520Z,11.84
2019-05-09T05:57:00.695Z,11.87
2019-05-09T06:02:04.256Z,12.13
2019-05-09T06:07:08.124Z,12.16
2019-05-09T06:12:11.474Z,11.65
2019-05-09T06:17:14.652Z,11.97
2019-05-09T06:22:18.513Z,11.71
2019-05-09T06:27:21.670Z,11.37
2019-05-09T06:32:24.962Z,11.41
2019-05-09T06:37:28.618Z,11.73
2019-05-09T06:42:32.388Z,11.69
2019-05-09T06:47:38.234Z,11.63
2019-05-09T06:52:42.737Z,11.78
2019-05-09T06:57:48.711Z,12.28
2019-05-09T07:03:00.734Z,12.40
2019-05-09T07:08:10.221Z,12.16
2019-05-09T07:13:12.823Z,12.35
2019-05-09T07:18:15.727Z,12.44
2019-05-09T07:23:18.301Z,12.60
2019-05-09T07:28:21.796Z,12.91
2019-05-09T07:33:39.281Z,12.60
2019-05-09T07:38:42.848Z,12.52
2019-05-09T07:43:47.611Z,12.47
2019-05-09T07:48:50.494Z,12.23
2019-05-09T07:53:53.644Z,12.52
2019-05-09T07:58:58.512Z,12.80
2019-05-09T08:04:02.024Z,13.15
2019-05-09T08:09:08.410Z,13.26
2019-05-09T08:14:11.719Z,13.23
2019-05-09T08:19:14.933Z,13.08
2019-05-09T08:24:18.376Z,13.06
2019-05-09T08:29:21.611Z,13.36
2019-05-09T08:34:25.178Z,13.50
2019-05-09T08:39:29.105Z,13.34
2019-05-09T08:44:32.883Z,13.58
2019-05-09T08:50:10.012Z,13.44
2019-05-09T08:55:13.020Z,13.61
2019-05-09T09:00:18.870Z,13.78
2019-05-09T09:05:21.025Z,13.94
2019-05-09T09:10:24.502Z,14.20
2019-05-09T09:15:50.026Z,14.45
2019-05-09T09:20:33.482Z,14.24
2019-05-09T09:25:38.883Z,14.58
2019-05-09T09:30:41.679Z,14.65
2019-05-09T09:35:44.965Z,14.97
2019-05-09T09:40:48.223Z,15.03
2019-05-09T09:46:06.262Z,14.85
2019-05-09T09:50:57.991Z,14.29
2019-05-09T09:56:01.437Z,13.96
2019-05-09T10:01:22.271Z,14.16
2019-05-09T10:06:25.413Z,14.45
2019-05-09T10:11:28.754Z,15.07
2019-05-09T10:16:44.588Z,15.28
2019-05-09T10:21:51.127Z,15.23
2019-05-09T10:27:10.724Z,15.09
2019-05-09T10:32:17.922Z,15.29
2019-05-09T10:37:20.598Z,15.66
2019-05-09T10:42:30.938Z,15.78
2019-05-09T10:47:34.413Z,15.99
2019-05-09T10:52:37.221Z,16.22
2019-05-09T10:57:42.605Z,16.90
2019-05-09T11:02:48.180Z,16.52
2019-05-09T11:07:51.124Z,16.45
2019-05-09T11:12:54.434Z,16.99
2019-05-09T11:17:58.129Z,17.07
2019-05-09T11:23:01.456Z,17.11
2019-05-09T11:28:10.910Z,18.24
2019-05-09T11:33:10.139Z,17.39
2019-05-09T11:38:13.295Z,16.76
2019-05-09T11:43:18.129Z,17.34
2019-05-09T11:48:21.489Z,17.93
2019-05-09T11:53:25.114Z,18.02
2019-05-09T11:58:28.238Z,18.95
2019-05-09T12:03:31.105Z,19.17
2019-05-09T12:08:34.372Z,18.59
2019-05-09T12:13:38.144Z,17.51
2019-05-09T12:18:40.990Z,18.39
2019-05-09T12:23:44.782Z,18.06
2019-05-09T12:28:48.621Z,17.80
2019-05-09T12:33:52.180Z,19.10
2019-05-09T12:38:58.754Z,19.86
2019-05-09T12:44:00.547Z,20.37
2019-05-09T12:49:04.143Z,19.89
2019-05-09T12:54:08.580Z,19.30
2019-05-09T12:59:11.669Z,19.78
2019-05-09T13:04:14.592Z,19.66
2019-05-09T13:09:18.007Z,18.80
2019-05-09T13:14:20.709Z,19.79
2019-05-09T13:19:27.943Z,19.84
2019-05-09T13:24:31.193Z,19.71
2019-05-09T13:29:34.723Z,20.10
2019-05-09T13:34:38.307Z,20.45
2019-05-09T13:39:41.567Z,21.20
2019-05-09T13:44:47.438Z,19.84
2019-05-09T13:49:50.544Z,20.03
2019-05-09T13:54:54.316Z,18.95
2019-05-09T13:59:59.629Z,18.46
2019-05-09T14:05:03.024Z,19.99
2019-05-09T14:10:09.053Z,22.05
2019-05-09T14:15:12.538Z,21.91
2019-05-09T14:20:18.003Z,20.30
2019-05-09T14:25:21.222Z,19.73
2019-05-09T14:30:27.376Z,19.20
2019-05-09T14:35:32.142Z,19.29
2019-05-09T14:40:37.184Z,20.24
2019-05-09T14:45:40.548Z,20.25
2019-05-09T14:50:43.793Z,19.55
2019-05-09T14:55:47.646Z,19.11
2019-05-09T15:00:52.069Z,18.54
2019-05-09T15:05:57.457Z,17.92
2019-05-09T15:11:00.977Z,17.95
2019-05-09T15:16:04.537Z,17.74
2019-05-09T15:21:08.053Z,17.49
2019-05-09T15:26:11.820Z,17.52
2019-05-09T15:31:15.142Z,17.63
2019-05-09T15:36:19.223Z,17.49
2019-05-09T15:41:22.872Z,17.51
2019-05-09T15:46:32.026Z,18.21
2019-05-09T15:51:38.478Z,20.60
2019-05-09T15:56:44.148Z,21.67
2019-05-09T16:01:49.452Z,21.09
2019-05-09T16:06:52.878Z,20.22
2019-05-09T16:11:56.022Z,18.74
2019-05-09T16:16:59.319Z,18.04
2019-05-09T16:22:02.199Z,17.70
2019-05-09T16:27:08.276Z,18.05
2019-05-09T16:32:11.409Z,18.60
2019-05-09T16:37:14.706Z,17.52
2019-05-09T16:42:17.967Z,17.35
2019-05-09T16:47:22.697Z,17.31
2019-05-09T16:52:26.342Z,17.31
2019-05-09T16:57:29.327Z,17.16
2019-05-09T17:02:32.836Z,16.97
2019-05-09T17:07:38.405Z,16.98
2019-05-09T17:12:42.136Z,16.64
2019-05-09T17:17:47.575Z,16.62
2019-05-09T17:23:13.475Z,16.67
2019-05-09T17:28:11.441Z,16.71
2019-05-09T17:33:14.862Z,16.65
2019-05-09T17:38:18.359Z,16.51
2019-05-09T17:43:21.622Z,16.58
2019-05-09T17:48:25.105Z,16.45
2019-05-09T17:53:29.323Z,16.42
2019-05-09T17:58:33.646Z,16.44
2019-05-09T18:03:38.480Z,16.50
2019-05-09T18:08:42.741Z,16.56
2019-05-09T18:13:48.118Z,16.53
2019-05-09T18:18:54.812Z,16.43
2019-05-09T18:23:58.781Z,16.19
2019-05-09T18:29:02.037Z,16.08
2019-05-09T18:34:07.792Z,16.00
2019-05-09T18:39:11.177Z,16.02
2019-05-09T18:44:14.209Z,15.69
2019-05-09T18:49:17.971Z,15.54
2019-05-09T18:54:21.252Z,15.51
2019-05-09T18:59:24.226Z,15.24
2019-05-09T19:04:27.302Z,15.07
2019-05-09T19:09:30.328Z,14.88
2019-05-09T19:14:33.378Z,14.82
2019-05-09T19:19:43.258Z,14.84
2019-05-09T19:24:46.797Z,14.80
2019-05-09T19:29:49.879Z,14.81
2019-05-09T19:34:53.307Z,14.74
2019-05-09T19:39:56.819Z,14.76
2019-05-09T19:45:00.605Z,14.79
2019-05-09T19:50:04.524Z,14.81
2019-05-09T19:55:08.349Z,14.73
2019-05-09T20:00:15.491Z,14.58
2019-05-09T20:05:18.435Z,14.56
2019-05-09T20:10:44.039Z,14.54
2019-05-09T20:15:57.538Z,14.50
2019-05-09T20:21:04.903Z,14.43
2019-05-09T20:26:16.930Z,14.34
2019-05-09T20:31:29.834Z,14.43
2019-05-09T20:36:38.820Z,14.31
2019-05-09T20:41:48.018Z,14.23
2019-05-09T20:46:52.718Z,13.92
2019-05-09T20:52:08.747Z,14.05
2019-05-09T20:57:13.944Z,13.87
2019-05-09T21:02:40.101Z,13.83
2019-05-09T21:07:48.053Z,14.03
2019-05-09T21:12:56.747Z,13.78
2019-05-09T21:18:02.870Z,13.68
2019-05-09T21:23:23.850Z,13.54
2019-05-09T21:28:18.042Z,13.46
2019-05-09T21:33:22.532Z,13.15
2019-05-09T21:38:30.311Z,13.12
2019-05-09T21:43:36.612Z,12.95
2019-05-09T21:48:41.191Z,12.96
2019-05-09T21:53:44.503Z,13.16
2019-05-09T21:58:47.391Z,13.13
2019-05-09T22:03:50.616Z,12.91
2019-05-09T22:08:55.292Z,12.95
2019-05-09T22:13:58.720Z,12.90
2019-05-09T22:19:02.366Z,13.01
2019-05-09T22:24:05.286Z,13.00
2019-05-09T22:29:08.943Z,12.74
2019-05-09T22:34:11.948Z,12.74
2019-05-09T22:39:15.182Z,12.74
2019-05-09T22:44:17.976Z,12.62
2019-05-09T22:49:20.621Z,12.73
2019-05-09T22:54:24.023Z,12.64
2019-05-09T22:59:27.294Z,12.57
2019-05-09T23:04:30.891Z,12.55
2019-05-09T23:09:34.541Z,12.66
2019-05-09T23:14:37.431Z,12.44
2019-05-09T23:19:40.922Z,12.58
2019-05-09T23:24:44.846Z,12.42
2019-05-09T23:29:48.376Z,12.15
2019-05-09T23:34:51.904Z,12.36
2019-05-09T23:39:54.909Z,12.50
2019-05-09T23:44:57.818Z,12.47
2019-05-09T23:50:01.032Z,12.45
2019-05-09T23:55:22.680Z,12.42
